createdAt,value
2019-05-07T00:02:27.659Z,94.00
2019-05-07T00:04:56.361Z,93.55
2019-05-07T00:07:25.026Z,93.17
2019-05-07T00:09:53.689Z,93.04
2019-05-07T00:12:23.022Z,93.39
2019-05-07T00:15:01.295Z,93.32
2019-05-07T00:17:22.960Z,93.03
2019-05-07T00:19:52.575Z,93.68
2019-05-07T00:22:22.720Z,93.92
2019-05-07T00:24:52.255Z,93.73
2019-05-07T00:27:22.634Z,93.88
2019-05-07T00:29:52.152Z,94.24
2019-05-07T00:32:22.131Z,93.90
2019-05-07T00:34:55.369Z,93.58
2019-05-07T00:37:33.846Z,93.66
2019-05-07T00:40:13.841Z,94.05
2019-05-07T00:43:02.597Z,93.84
2019-05-07T00:45:38.791Z,93.79
2019-05-07T00:48:07.462Z,93.62
2019-05-07T00:50:37.825Z,93.56
2019-05-07T00:53:06.480Z,93.70
2019-05-07T00:55:35.321Z,92.90
2019-05-07T00:58:04.032Z,92.77
2019-05-07T01:00:33.356Z,93.23
2019-05-07T01:03:03.040Z,92.84
2019-05-07T01:05:32.625Z,93.37
2019-05-07T01:08:02.544Z,93.43
2019-05-07T01:10:32.973Z,93.35
2019-05-07T01:13:02.780Z,93.32
2019-05-07T01:15:34.521Z,93.24
2019-05-07T01:18:02.844Z,93.27
2019-05-07T01:20:32.983Z,93.22
2019-05-07T01:23:02.628Z,93.45
2019-05-07T01:25:32.907Z,93.72
2019-05-07T01:28:02.656Z,94.38
2019-05-07T01:30:32.488Z,95.14
2019-05-07T01:33:07.258Z,95.25
2019-05-07T01:35:54.015Z,95.64
2019-05-07T01:38:23.011Z,95.62
2019-05-07T01:40:52.104Z,95.76
2019-05-07T01:43:22.770Z,95.94
2019-05-07T01:45:52.991Z,96.21
2019-05-07T01:48:23.008Z,96.15
2019-05-07T01:50:52.589Z,96.30
2019-05-07T01:53:22.735Z,96.42
2019-05-07T01:55:52.367Z,96.54
2019-05-07T01:58:22.130Z,96.73
2019-05-07T02:00:53.034Z,96.80
2019-05-07T02:03:43.008Z,96.67
2019-05-07T02:06:22.055Z,96.76
2019-05-07T02:09:10.890Z,96.77
2019-05-07T02:11:43.135Z,96.87
2019-05-07T02:14:13.636Z,96.65
2019-05-07T02:16:42.206Z,96.56
2019-05-07T02:19:12.672Z,96.70
2019-05-07T02:21:42.362Z,97.05
2019-05-07T02:24:12.666Z,97.25
2019-05-07T02:26:42.738Z,97.81
2019-05-07T02:29:12.202Z,98.09
2019-05-07T02:31:44.264Z,97.91
2019-05-07T02:34:14.141Z,98.18
2019-05-07T02:36:43.257Z,98.27
2019-05-07T02:39:27.530Z,98.15
2019-05-07T02:41:56.268Z,98.26
2019-05-07T02:44:24.963Z,98.66
2019-05-07T02:47:05.552Z,98.51
2019-05-07T02:49:44.061Z,98.28
2019-05-07T02:52:22.967Z,98.41
2019-05-07T02:54:58.743Z,98.61
2019-05-07T02:57:28.388Z,98.24
2019-05-07T02:59:57.076Z,97.85
2019-05-07T03:02:25.777Z,97.93
2019-05-07T03:04:54.450Z,97.58
2019-05-07T03:07:24.115Z,97.57
2019-05-07T03:09:53.990Z,97.89
2019-05-07T03:12:23.719Z,97.76
2019-05-07T03:14:53.653Z,99.34
2019-05-07T03:17:24.623Z,100.00
2019-05-07T03:19:54.877Z,100.00
2019-05-07T03:22:23.606Z,100.00
2019-05-07T03:24:57.266Z,100.00
2019-05-07T03:27:25.935Z,100.00
2019-05-07T03:30:09.458Z,100.00
2019-05-07T03:32:46.899Z,100.00
2019-05-07T03:35:30.000Z,100.00
2019-05-07T03:37:58.772Z,100.00
2019-05-07T03:40:28.315Z,100.00
2019-05-07T03:42:57.092Z,100.00
2019-05-07T03:45:36.046Z,100.00
2019-05-07T03:48:16.242Z,100.00
2019-05-07T03:50:44.888Z,100.00
2019-05-07T03:53:14.492Z,100.00
2019-05-07T03:55:44.721Z,100.00
2019-05-07T03:58:14.794Z,100.00
2019-05-07T04:00:44.627Z,100.00
2019-05-07T04:03:18.780Z,100.00
2019-05-07T04:05:43.873Z,100.00
2019-05-07T04:08:13.288Z,100.00
2019-05-07T04:10:44.368Z,100.00
2019-05-07T04:13:13.573Z,100.00
2019-05-07T04:15:43.801Z,100.00
2019-05-07T04:18:13.577Z,100.00
2019-05-07T04:20:43.538Z,100.00
2019-05-07T04:23:13.850Z,100.00
2019-05-07T04:26:04.405Z,100.00
2019-05-07T04:28:57.252Z,100.00
2019-05-07T04:31:28.002Z,100.00
2019-05-07T04:33:59.366Z,100.00
2019-05-07T04:36:30.397Z,100.00
2019-05-07T04:39:03.092Z,100.00
2019-05-07T04:41:33.019Z,100.00
2019-05-07T04:44:03.671Z,100.00
2019-05-07T04:46:33.395Z,100.00
2019-05-07T04:49:03.601Z,100.00
2019-05-07T04:51:57.235Z,100.00
2019-05-07T04:54:25.900Z,100.00
2019-05-07T04:56:54.609Z,100.00
2019-05-07T04:59:23.872Z,100.00
2019-05-07T05:01:59.157Z,100.00
2019-05-07T05:04:34.045Z,100.00
2019-05-07T05:06:58.245Z,100.00
2019-05-07T05:09:26.987Z,100.00
2019-05-07T05:11:55.645Z,100.00
2019-05-07T05:14:24.315Z,100.00
2019-05-07T05:16:53.007Z,100.00
2019-05-07T05:19:23.021Z,100.00
2019-05-07T05:21:59.191Z,100.00
2019-05-07T05:24:34.603Z,100.00
2019-05-07T05:27:03.276Z,100.00
2019-05-07T05:29:33.876Z,100.00
2019-05-07T05:32:02.549Z,100.00
2019-05-07T05:34:32.914Z,99.65
2019-05-07T05:37:02.432Z,98.56
2019-05-07T05:39:32.060Z,97.97
2019-05-07T05:42:20.082Z,98.25
2019-05-07T05:44:48.754Z,98.89
2019-05-07T05:47:17.421Z,98.86
2019-05-07T05:49:46.108Z,96.79
2019-05-07T05:52:25.010Z,93.11
2019-05-07T05:54:57.825Z,91.72
2019-05-07T05:57:44.198Z,88.66
2019-05-07T06:00:32.858Z,87.14
2019-05-07T06:03:22.687Z,86.35
2019-05-07T06:06:01.862Z,88.33
2019-05-07T06:08:38.974Z,87.12
2019-05-07T06:11:21.856Z,88.05
2019-05-07T06:14:09.804Z,87.87
2019-05-07T06:16:42.646Z,88.30
2019-05-07T06:19:42.534Z,89.35
2019-05-07T06:22:33.292Z,88.51
2019-05-07T06:25:17.423Z,87.01
2019-05-07T06:27:46.092Z,84.57
2019-05-07T06:30:15.448Z,83.23
2019-05-07T06:32:44.106Z,83.04
2019-05-07T06:35:13.020Z,80.79
2019-05-07T06:37:42.878Z,79.17
2019-05-07T06:40:24.061Z,77.22
2019-05-07T06:43:04.315Z,74.19
2019-05-07T06:45:42.213Z,73.96
2019-05-07T06:48:12.625Z,75.06
2019-05-07T06:50:56.645Z,73.18
2019-05-07T06:53:33.340Z,68.92
2019-05-07T06:56:04.078Z,66.21
2019-05-07T06:58:49.964Z,64.85
2019-05-07T07:01:32.244Z,63.91
2019-05-07T07:04:09.380Z,65.15
2019-05-07T07:06:56.152Z,66.70
2019-05-07T07:09:39.748Z,66.40
2019-05-07T07:12:12.775Z,65.46
2019-05-07T07:14:42.394Z,64.52
2019-05-07T07:17:12.958Z,63.68
2019-05-07T07:19:42.788Z,64.62
2019-05-07T07:22:12.956Z,65.31
2019-05-07T07:24:42.523Z,64.25
2019-05-07T07:27:13.198Z,63.88
2019-05-07T07:29:46.690Z,59.87
2019-05-07T07:32:17.268Z,59.15
2019-05-07T07:34:49.153Z,57.17
2019-05-07T07:37:34.597Z,55.18
2019-05-07T07:40:36.216Z,55.33
2019-05-07T07:43:07.163Z,56.90
2019-05-07T07:45:35.477Z,56.15
2019-05-07T07:48:04.152Z,60.06
2019-05-07T07:50:33.188Z,60.35
2019-05-07T07:53:02.612Z,60.05
2019-05-07T07:55:37.042Z,53.77
2019-05-07T07:58:23.066Z,53.26
2019-05-07T08:01:12.318Z,51.63
2019-05-07T08:03:41.800Z,56.08
2019-05-07T08:06:11.940Z,59.39
2019-05-07T08:08:42.475Z,62.52
2019-05-07T08:11:12.660Z,63.74
2019-05-07T08:13:42.489Z,62.62
2019-05-07T08:16:12.969Z,58.81
2019-05-07T08:18:43.523Z,58.33
2019-05-07T08:21:12.162Z,54.63
2019-05-07T08:23:42.401Z,51.99
2019-05-07T08:26:12.682Z,53.98
2019-05-07T08:28:41.990Z,51.75
2019-05-07T08:31:37.950Z,52.01
2019-05-07T08:34:15.381Z,51.44
2019-05-07T08:36:44.150Z,50.70
2019-05-07T08:39:13.067Z,47.99
2019-05-07T08:41:42.342Z,45.31
2019-05-07T08:44:15.793Z,45.35
2019-05-07T08:46:57.714Z,46.66
2019-05-07T08:49:36.783Z,47.67
2019-05-07T08:52:03.537Z,45.57
2019-05-07T08:54:33.354Z,50.42
2019-05-07T08:57:02.604Z,49.25
2019-05-07T08:59:32.587Z,49.93
2019-05-07T09:02:02.917Z,47.33
2019-05-07T09:04:32.638Z,45.75
2019-05-07T09:07:02.688Z,44.75
2019-05-07T09:09:32.372Z,47.36
2019-05-07T09:12:02.940Z,47.19
2019-05-07T09:14:32.225Z,47.63
2019-05-07T09:17:02.468Z,46.76
2019-05-07T09:19:32.446Z,45.41
2019-05-07T09:22:02.132Z,43.08
2019-05-07T09:24:33.279Z,44.19
2019-05-07T09:27:26.609Z,45.46
2019-05-07T09:30:12.884Z,46.87
2019-05-07T09:33:04.946Z,52.14
2019-05-07T09:35:39.798Z,55.48
2019-05-07T09:38:08.363Z,56.24
2019-05-07T09:40:37.022Z,57.09
2019-05-07T09:43:05.723Z,54.59
2019-05-07T09:45:34.403Z,52.42
2019-05-07T09:48:04.782Z,49.99
2019-05-07T09:50:33.441Z,49.31
2019-05-07T09:53:02.483Z,47.05
2019-05-07T09:55:32.554Z,45.14
2019-05-07T09:58:02.058Z,42.37
2019-05-07T10:00:32.014Z,39.15
2019-05-07T10:03:01.157Z,36.45
2019-05-07T10:05:31.939Z,38.61
2019-05-07T10:08:01.873Z,34.91
2019-05-07T10:10:32.749Z,38.00
2019-05-07T10:13:07.303Z,41.97
2019-05-07T10:15:36.120Z,40.45
2019-05-07T10:18:12.392Z,40.19
2019-05-07T10:20:42.110Z,41.37
2019-05-07T10:23:19.721Z,42.55
2019-05-07T10:25:51.536Z,42.01
2019-05-07T10:28:22.577Z,37.68
2019-05-07T10:30:52.180Z,34.09
2019-05-07T10:33:22.849Z,31.91
2019-05-07T10:35:52.962Z,30.26
2019-05-07T10:38:21.975Z,33.37
2019-05-07T10:40:50.718Z,37.75
2019-05-07T10:43:19.411Z,41.78
2019-05-07T10:46:06.108Z,42.18
2019-05-07T10:48:42.664Z,44.69
2019-05-07T10:51:11.410Z,46.00
2019-05-07T10:53:42.322Z,46.98
2019-05-07T10:56:11.818Z,47.70
2019-05-07T10:58:41.763Z,46.21
2019-05-07T11:01:12.027Z,46.80
2019-05-07T11:03:40.818Z,45.97
2019-05-07T11:06:11.840Z,46.46
2019-05-07T11:08:40.117Z,45.97
2019-05-07T11:11:08.881Z,43.36
2019-05-07T11:13:37.563Z,43.67
2019-05-07T11:16:11.753Z,43.37
2019-05-07T11:18:44.119Z,44.24
2019-05-07T11:21:12.900Z,44.49
2019-05-07T11:23:41.957Z,45.15
2019-05-07T11:26:11.811Z,45.18
2019-05-07T11:28:40.717Z,44.21
2019-05-07T11:31:09.384Z,44.13
2019-05-07T11:33:38.081Z,44.88
2019-05-07T11:36:06.743Z,45.70
2019-05-07T11:38:35.522Z,44.61
2019-05-07T11:41:04.349Z,42.53
2019-05-07T11:43:58.170Z,40.23
2019-05-07T11:46:34.104Z,36.51
2019-05-07T11:49:09.289Z,34.09
2019-05-07T11:51:42.726Z,32.95
2019-05-07T11:54:12.871Z,29.55
2019-05-07T11:56:42.354Z,25.95
2019-05-07T11:59:13.380Z,23.73
2019-05-07T12:01:47.716Z,27.37
2019-05-07T12:04:15.569Z,33.71
2019-05-07T12:06:44.329Z,36.05
2019-05-07T12:09:13.076Z,36.83
2019-05-07T12:11:42.548Z,36.56
2019-05-07T12:14:12.396Z,34.41
2019-05-07T12:16:42.549Z,31.12
2019-05-07T12:19:13.042Z,33.60
2019-05-07T12:21:42.284Z,30.56
2019-05-07T12:24:12.922Z,33.00
2019-05-07T12:26:42.508Z,35.08
2019-05-07T12:29:11.849Z,33.83
2019-05-07T12:31:49.637Z,28.84
2019-05-07T12:34:23.074Z,26.12
2019-05-07T12:36:52.441Z,27.18
2019-05-07T12:39:21.908Z,29.56
2019-05-07T12:41:52.441Z,25.27
2019-05-07T12:44:22.178Z,26.49
2019-05-07T12:46:52.492Z,30.36
2019-05-07T12:49:22.169Z,32.50
2019-05-07T12:51:56.329Z,34.10
2019-05-07T12:54:34.708Z,32.90
2019-05-07T12:57:02.542Z,27.34
2019-05-07T12:59:32.239Z,25.58
2019-05-07T13:02:21.563Z,29.00
2019-05-07T13:04:38.078Z,29.56
2019-05-07T13:07:34.976Z,30.31
2019-05-07T13:10:04.001Z,28.58
2019-05-07T13:12:32.683Z,31.01
2019-05-07T13:15:03.012Z,29.96
2019-05-07T13:17:33.681Z,28.47
2019-05-07T13:20:02.278Z,24.87
2019-05-07T13:22:32.563Z,28.04
2019-05-07T13:25:02.138Z,30.05
2019-05-07T13:27:32.014Z,32.12
2019-05-07T13:30:02.600Z,31.81
2019-05-07T13:32:33.445Z,32.66
2019-05-07T13:35:03.074Z,30.39
2019-05-07T13:37:33.649Z,28.44
2019-05-07T13:40:11.677Z,28.20
2019-05-07T13:42:59.879Z,27.40
2019-05-07T13:45:39.257Z,27.07
2019-05-07T13:48:22.535Z,24.43
2019-05-07T13:50:51.911Z,20.89
2019-05-07T13:53:22.680Z,23.29
2019-05-07T13:55:51.221Z,28.13
2019-05-07T13:58:19.902Z,31.14
2019-05-07T14:01:07.656Z,32.90
2019-05-07T14:03:36.480Z,35.17
2019-05-07T14:06:05.301Z,33.29
2019-05-07T14:08:36.313Z,30.58
2019-05-07T14:11:05.154Z,30.32
2019-05-07T14:13:34.496Z,29.77
2019-05-07T14:16:08.274Z,28.54
2019-05-07T14:18:38.316Z,28.00
2019-05-07T14:21:07.335Z,27.63
2019-05-07T14:23:36.176Z,29.33
2019-05-07T14:26:05.961Z,31.53
2019-05-07T14:28:34.701Z,31.48
2019-05-07T14:31:03.608Z,28.55
2019-05-07T14:34:02.367Z,27.38
2019-05-07T14:36:36.855Z,29.91
2019-05-07T14:39:07.659Z,30.04
2019-05-07T14:41:36.659Z,30.74
2019-05-07T14:44:16.312Z,31.11
2019-05-07T14:46:50.919Z,30.69
2019-05-07T14:49:15.624Z,27.52
2019-05-07T14:51:44.364Z,21.88
2019-05-07T14:54:13.203Z,21.88
2019-05-07T14:56:42.856Z,20.64
2019-05-07T14:59:12.817Z,21.81
2019-05-07T15:01:42.940Z,25.14
2019-05-07T15:04:12.922Z,28.19
2019-05-07T15:06:41.680Z,29.51
2019-05-07T15:09:12.160Z,29.67
2019-05-07T15:11:42.475Z,31.83
2019-05-07T15:14:12.090Z,33.78
2019-05-07T15:16:42.705Z,36.36
2019-05-07T15:19:12.424Z,37.90
2019-05-07T15:21:42.583Z,38.37
2019-05-07T15:24:14.141Z,41.10
2019-05-07T15:26:42.901Z,42.78
2019-05-07T15:29:13.589Z,41.76
2019-05-07T15:31:57.757Z,42.90
2019-05-07T15:34:26.446Z,45.02
2019-05-07T15:36:55.406Z,46.12
2019-05-07T15:39:24.245Z,46.56
2019-05-07T15:41:53.056Z,46.60
2019-05-07T15:44:21.832Z,46.45
2019-05-07T15:46:51.998Z,46.79
2019-05-07T15:49:21.644Z,47.06
2019-05-07T15:51:53.150Z,47.43
2019-05-07T15:54:22.080Z,47.79
2019-05-07T15:56:52.309Z,47.53
2019-05-07T15:59:24.430Z,47.40
2019-05-07T16:01:56.772Z,47.75
2019-05-07T16:04:26.053Z,47.58
2019-05-07T16:06:56.448Z,46.82
2019-05-07T16:09:26.782Z,46.84
2019-05-07T16:11:55.451Z,47.61
2019-05-07T16:14:26.780Z,47.80
2019-05-07T16:17:03.102Z,46.00
2019-05-07T16:19:32.222Z,43.54
2019-05-07T16:22:05.710Z,43.67
2019-05-07T16:24:34.725Z,43.57
2019-05-07T16:27:05.198Z,44.01
2019-05-07T16:29:35.894Z,42.34
2019-05-07T16:32:04.282Z,42.78
2019-05-07T16:34:32.938Z,41.61
2019-05-07T16:37:05.537Z,40.56
2019-05-07T16:39:32.649Z,40.30
2019-05-07T16:42:01.895Z,40.46
2019-05-07T16:44:30.612Z,41.59
2019-05-07T16:46:59.282Z,42.15
2019-05-07T16:49:27.968Z,42.97
2019-05-07T16:51:56.648Z,42.56
2019-05-07T16:54:25.318Z,42.29
2019-05-07T16:57:28.484Z,42.93
2019-05-07T16:59:57.163Z,42.95
2019-05-07T17:02:28.987Z,42.34
2019-05-07T17:05:09.288Z,42.51
2019-05-07T17:07:42.801Z,41.82
2019-05-07T17:10:12.440Z,42.13
2019-05-07T17:12:42.846Z,41.35
2019-05-07T17:15:13.129Z,41.18
2019-05-07T17:17:42.781Z,42.57
2019-05-07T17:20:12.703Z,45.30
2019-05-07T17:22:42.731Z,44.94
2019-05-07T17:25:29.676Z,45.67
2019-05-07T17:27:58.400Z,46.84
2019-05-07T17:30:27.090Z,47.41
2019-05-07T17:32:55.754Z,48.74
2019-05-07T17:35:24.458Z,49.50
2019-05-07T17:38:05.921Z,48.63
2019-05-07T17:40:23.607Z,49.82
2019-05-07T17:42:52.557Z,50.80
2019-05-07T17:45:22.761Z,50.65
2019-05-07T17:47:52.358Z,50.82
2019-05-07T17:50:24.939Z,51.47
2019-05-07T17:52:53.613Z,51.36
2019-05-07T17:55:22.428Z,50.76
2019-05-07T17:57:52.384Z,49.17
2019-05-07T18:00:22.145Z,49.61
2019-05-07T18:03:13.185Z,49.96
2019-05-07T18:05:42.439Z,50.82
2019-05-07T18:08:12.619Z,51.29
2019-05-07T18:10:42.380Z,53.21
2019-05-07T18:13:11.853Z,52.97
2019-05-07T18:15:42.636Z,54.09
2019-05-07T18:18:12.818Z,53.90
2019-05-07T18:20:42.179Z,54.79
2019-05-07T18:23:16.659Z,55.73
2019-05-07T18:25:42.896Z,56.45
2019-05-07T18:28:12.754Z,57.15
2019-05-07T18:30:41.430Z,57.87
2019-05-07T18:33:24.741Z,58.07
2019-05-07T18:35:53.485Z,58.35
2019-05-07T18:38:22.470Z,59.72
2019-05-07T18:40:52.841Z,60.39
2019-05-07T18:43:22.663Z,61.00
2019-05-07T18:45:51.821Z,62.28
2019-05-07T18:48:22.392Z,64.17
2019-05-07T18:50:52.215Z,65.43
2019-05-07T18:53:22.678Z,66.52
2019-05-07T18:55:51.753Z,69.63
2019-05-07T18:58:22.425Z,72.16
2019-05-07T19:00:54.810Z,74.78
2019-05-07T19:03:25.382Z,76.92
2019-05-07T19:05:54.143Z,78.98
2019-05-07T19:08:23.057Z,81.23
2019-05-07T19:10:52.275Z,81.28
2019-05-07T19:13:22.146Z,80.81
2019-05-07T19:15:53.037Z,81.06
2019-05-07T19:18:22.803Z,82.00
2019-05-07T19:20:52.902Z,82.77
2019-05-07T19:23:22.514Z,83.21
2019-05-07T19:25:52.330Z,84.41
2019-05-07T19:28:22.447Z,84.47
2019-05-07T19:30:52.746Z,84.02
2019-05-07T19:33:26.541Z,83.30
2019-05-07T19:35:52.889Z,84.15
2019-05-07T19:38:21.706Z,85.75
2019-05-07T19:40:52.665Z,86.61
2019-05-07T19:43:21.122Z,87.16
2019-05-07T19:45:49.791Z,86.63
2019-05-07T19:48:18.487Z,88.10
2019-05-07T19:50:47.153Z,88.55
2019-05-07T19:53:15.822Z,89.03
2019-05-07T19:56:22.079Z,90.10
2019-05-07T19:58:52.642Z,90.59
2019-05-07T20:01:26.484Z,90.33
2019-05-07T20:03:55.169Z,89.97
2019-05-07T20:06:23.832Z,89.76
2019-05-07T20:08:52.920Z,89.27
2019-05-07T20:11:32.003Z,88.53
2019-05-07T20:14:02.033Z,87.63
2019-05-07T20:16:32.975Z,88.04
2019-05-07T20:19:01.217Z,88.02
2019-05-07T20:21:32.623Z,88.18
2019-05-07T20:24:01.899Z,88.02
2019-05-07T20:26:32.626Z,88.93
2019-05-07T20:29:03.074Z,89.69
2019-05-07T20:31:33.477Z,90.90
2019-05-07T20:34:02.414Z,91.02
2019-05-07T20:36:32.776Z,91.23
2019-05-07T20:39:02.333Z,91.18
2019-05-07T20:41:32.894Z,91.57
2019-05-07T20:44:02.843Z,92.09
2019-05-07T20:46:32.048Z,93.07
2019-05-07T20:49:02.696Z,92.98
2019-05-07T20:51:32.529Z,93.18
2019-05-07T20:54:12.862Z,93.36
2019-05-07T20:56:46.751Z,93.06
2019-05-07T20:59:15.626Z,93.24
2019-05-07T21:01:44.308Z,93.38
2019-05-07T21:04:13.137Z,93.29
2019-05-07T21:06:43.149Z,93.94
2019-05-07T21:09:12.779Z,94.33
2019-05-07T21:11:43.025Z,94.41
2019-05-07T21:14:12.245Z,94.23
2019-05-07T21:16:42.464Z,94.35
2019-05-07T21:19:12.827Z,94.83
2019-05-07T21:21:42.313Z,94.95
2019-05-07T21:24:13.030Z,95.37
2019-05-07T21:26:42.399Z,95.45
2019-05-07T21:29:13.486Z,95.28
2019-05-07T21:31:43.135Z,95.24
2019-05-07T21:34:12.586Z,95.48
2019-05-07T21:36:43.294Z,95.65
2019-05-07T21:39:13.055Z,95.59
2019-05-07T21:41:42.763Z,95.37
2019-05-07T21:44:11.574Z,95.34
2019-05-07T21:46:42.288Z,95.46
2019-05-07T21:49:12.157Z,95.81
2019-05-07T21:51:41.105Z,95.79
2019-05-07T21:54:27.925Z,95.54
2019-05-07T21:57:13.786Z,95.59
2019-05-07T21:59:43.251Z,95.39
2019-05-07T22:02:17.241Z,95.28
2019-05-07T22:04:46.011Z,95.32
2019-05-07T22:07:14.857Z,95.61
2019-05-07T22:09:43.521Z,95.70
2019-05-07T22:12:12.252Z,95.75
2019-05-07T22:14:40.901Z,95.37
2019-05-07T22:17:09.569Z,95.48
2019-05-07T22:19:38.267Z,95.44
2019-05-07T22:22:06.933Z,95.81
2019-05-07T22:24:35.599Z,95.83
2019-05-07T22:27:04.394Z,95.88
2019-05-07T22:29:33.056Z,95.87
2019-05-07T22:32:39.186Z,96.14
2019-05-07T22:35:15.682Z,95.98
2019-05-07T22:37:44.362Z,96.94
2019-05-07T22:40:13.197Z,96.82
2019-05-07T22:42:41.959Z,96.73
2019-05-07T22:45:12.139Z,97.08
2019-05-07T22:47:41.987Z,97.55
2019-05-07T22:50:12.101Z,97.84
2019-05-07T22:52:40.828Z,97.97
2019-05-07T22:55:09.670Z,97.76
2019-05-07T22:57:54.185Z,97.62
2019-05-07T23:00:28.941Z,97.79
2019-05-07T23:02:57.600Z,97.83
2019-05-07T23:05:26.285Z,98.00
2019-05-07T23:07:54.986Z,98.15
2019-05-07T23:10:23.645Z,98.47
2019-05-07T23:12:52.318Z,98.17
2019-05-07T23:15:22.605Z,97.87
2019-05-07T23:17:51.360Z,97.76
2019-05-07T23:20:24.194Z,97.84
2019-05-07T23:22:52.021Z,97.89
2019-05-07T23:25:24.228Z,97.90
2019-05-07T23:27:52.466Z,97.58
2019-05-07T23:30:22.375Z,97.72
2019-05-07T23:32:52.808Z,98.10
2019-05-07T23:35:22.270Z,98.37
2019-05-07T23:37:53.016Z,98.50
2019-05-07T23:40:38.322Z,98.85
2019-05-07T23:43:08.150Z,98.76
2019-05-07T23:45:36.857Z,99.00
2019-05-07T23:48:05.546Z,99.49
2019-05-07T23:50:34.203Z,99.49
2019-05-07T23:53:02.877Z,99.68
2019-05-07T23:55:31.902Z,99.77
2019-05-07T23:58:02.947Z,99.56
